Ann Arbor, MI (48105)

7:54 AM EDT on May 26, 2015 (GMT -0400)
Leslie Park Golf Course | | Change Station
CLOSE
Current Station
Personal Weather Station
Location: Ann Arbor, MI
Elevation: 906 ft
Nearby Weather Stations

Elev 906 ft 42.31 °N, 83.72 °W | Updated 57 seconds ago

Overcast
Overcast
66.0 °F
Feels Like 66.0 °F
N
1.0
Wind Variable Wind from SSW
Gusts 3.0 mph

Today
High -- | Low -- °F
--% Chance of Precip.
Yesterday
High -- | Low -- °F
Precip. -- in
6:04 AM 8:59 PM
First Quarter, 57% visible
Pressure 30.06 in
Visibility 8.0 miles
Clouds Overcast 900 ft
Dew Point 64 °F
Humidity 94%
Rainfall 0.00 in
Snow Depth Not available.
UV 0 out of 12
Pollen 6.70 out of 12
Air Quality Not available.
Flu Activity Sporadic
SPECI KARB 261108Z AUTO 20006KT 8SM OVC009 18/17 A3006 RMK AO2 T01830172

More Conditions Fewer Conditions

Pressure 30.06 in
Visibility 8.0 miles
Clouds Overcast 900 ft
Dew Point 64 °F
Humidity 94%
Rainfall 0.00 in
Snow Depth Not available.
UV 0 out of 12
Pollen 6.70 out of 12
Air Quality Not available.
Flu Activity Sporadic
SPECI KARB 261108Z AUTO 20006KT 8SM OVC009 18/17 A3006 RMK AO2 T01830172

More Conditions Fewer Conditions

10-Day Weather Forecast

Almanac

Astronomy

May. 26, 2015 Rise Set
Actual Time
Civil Twilight
Nautical Twilight
Astronomical Twilight
Moon
Length of Visible Light
Length of Day
Tomorrow will be .
, % of the Moon is Illuminated

Today's Extremes

State Highs State Lows

Community

WunderPhotos

Upload Photos

1,824,304 photos uploaded!

WunderBlogs® & News

Nearby

Air Quality

  Air Quality AQ Index Pollutant
Not available.

Snow Depth

Station Depth Elevation

Earthquake Activity

City Distance Mag. Time & Date
Minimum magnitude displayed is 2.5.

Coastal Water Temperatures

Place Temperature

Stations

Nearby Weather Stations

Station Location Temp. Windchill Dew Point Humidity Wind Precip. Elev Updated Type